sensor_id;sensor_type;location;lat;lon;timestamp;P1;durP1;ratioP1;P2;durP2;ratioP2
6356;SDS011;3211;53.452;-2.264;2023-07-20T00:02:37;6.03;;;3.40;;
6356;SDS011;3211;53.452;-2.264;2023-07-20T00:05:19;5.90;;;3.10;;
6356;SDS011;3211;53.452;-2.264;2023-07-20T00:08:01;8.63;;;4.10;;
6356;SDS011;3211;53.452;-2.264;2023-07-20T00:10:43;6.57;;;3.23;;
6356;SDS011;3211;53.452;-2.264;2023-07-20T00:13:27;7.40;;;2.70;;
6356;SDS011;3211;53.452;-2.264;2023-07-20T00:16:09;4.60;;;3.30;;
6356;SDS011;3211;53.452;-2.264;2023-07-20T00:18:51;4.90;;;3.43;;
6356;SDS011;3211;53.452;-2.264;2023-07-20T00:21:33;5.90;;;4.20;;
6356;SDS011;3211;53.452;-2.264;2023-07-20T00:24:15;4.90;;;3.37;;
6356;SDS011;3211;53.452;-2.264;2023-07-20T00:26:57;5.60;;;3.30;;
6356;SDS011;3211;53.452;-2.264;2023-07-20T00:29:42;9.33;;;4.63;;
6356;SDS011;3211;53.452;-2.264;2023-07-20T00:32:24;3.87;;;3.53;;
6356;SDS011;3211;53.452;-2.264;2023-07-20T00:35:06;5.17;;;4.00;;
6356;SDS011;3211;53.452;-2.264;2023-07-20T00:37:48;4.50;;;3.40;;
6356;SDS011;3211;53.452;-2.264;2023-07-20T00:40:35;5.17;;;3.60;;
6356;SDS011;3211;53.452;-2.264;2023-07-20T00:43:17;4.40;;;3.27;;
6356;SDS011;3211;53.452;-2.264;2023-07-20T00:46:00;4.90;;;3.30;;
6356;SDS011;3211;53.452;-2.264;2023-07-20T00:48:43;3.53;;;3.23;;
6356;SDS011;3211;53.452;-2.264;2023-07-20T00:51:25;7.40;;;3.67;;
6356;SDS011;3211;53.452;-2.264;2023-07-20T00:54:08;3.90;;;2.80;;
6356;SDS011;3211;53.452;-2.264;2023-07-20T00:56:50;3.73;;;3.20;;
6356;SDS011;3211;53.452;-2.264;2023-07-20T00:59:34;6.03;;;3.27;;
6356;SDS011;3211;53.452;-2.264;2023-07-20T01:02:18;4.43;;;3.07;;
6356;SDS011;3211;53.452;-2.264;2023-07-20T01:05:00;6.83;;;3.07;;
6356;SDS011;3211;53.452;-2.264;2023-07-20T01:07:42;5.90;;;3.40;;
6356;SDS011;3211;53.452;-2.264;2023-07-20T01:10:31;6.47;;;3.57;;
6356;SDS011;3211;53.452;-2.264;2023-07-20T01:13:19;6.70;;;3.53;;
6356;SDS011;3211;53.452;-2.264;2023-07-20T01:16:03;5.93;;;3.47;;
6356;SDS011;3211;53.452;-2.264;2023-07-20T01:18:46;6.10;;;3.10;;
6356;SDS011;3211;53.452;-2.264;2023-07-20T01:21:31;5.30;;;3.53;;
6356;SDS011;3211;53.452;-2.264;2023-07-20T01:30:46;4.97;;;3.37;;
6356;SDS011;3211;53.452;-2.264;2023-07-20T01:33:38;4.00;;;3.30;;
6356;SDS011;3211;53.452;-2.264;2023-07-20T01:36:22;7.00;;;4.07;;
6356;SDS011;3211;53.452;-2.264;2023-07-20T01:39:05;6.03;;;3.50;;
6356;SDS011;3211;53.452;-2.264;2023-07-20T01:41:48;7.30;;;3.97;;
6356;SDS011;3211;53.452;-2.264;2023-07-20T01:44:31;3.97;;;2.83;;
6356;SDS011;3211;53.452;-2.264;2023-07-20T01:47:13;5.40;;;3.70;;
6356;SDS011;3211;53.452;-2.264;2023-07-20T01:49:56;4.67;;;3.20;;
6356;SDS011;3211;53.452;-2.264;2023-07-20T01:52:38;7.70;;;3.97;;
6356;SDS011;3211;53.452;-2.264;2023-07-20T01:55:20;6.10;;;3.60;;
6356;SDS011;3211;53.452;-2.264;2023-07-20T01:58:02;6.63;;;3.47;;
6356;SDS011;3211;53.452;-2.264;2023-07-20T02:00:44;3.97;;;3.60;;
6356;SDS011;3211;53.452;-2.264;2023-07-20T02:03:26;7.00;;;4.00;;
6356;SDS011;3211;53.452;-2.264;2023-07-20T02:06:09;6.63;;;4.13;;
6356;SDS011;3211;53.452;-2.264;2023-07-20T02:08:51;3.97;;;3.53;;
6356;SDS011;3211;53.452;-2.264;2023-07-20T02:11:34;6.53;;;3.67;;
6356;SDS011;3211;53.452;-2.264;2023-07-20T02:14:16;5.30;;;3.90;;
6356;SDS011;3211;53.452;-2.264;2023-07-20T02:16:58;6.80;;;4.07;;
6356;SDS011;3211;53.452;-2.264;2023-07-20T02:19:40;5.27;;;3.83;;
6356;SDS011;3211;53.452;-2.264;2023-07-20T02:22:23;5.57;;;3.83;;
6356;SDS011;3211;53.452;-2.264;2023-07-20T02:25:06;5.33;;;3.53;;
6356;SDS011;3211;53.452;-2.264;2023-07-20T02:27:49;5.00;;;3.90;;
6356;SDS011;3211;53.452;-2.264;2023-07-20T02:30:31;5.80;;;4.00;;
6356;SDS011;3211;53.452;-2.264;2023-07-20T02:33:13;5.67;;;3.80;;
6356;SDS011;3211;53.452;-2.264;2023-07-20T02:35:55;4.70;;;4.07;;
6356;SDS011;3211;53.452;-2.264;2023-07-20T02:38:38;10.90;;;4.20;;
6356;SDS011;3211;53.452;-2.264;2023-07-20T02:41:20;6.90;;;4.10;;
6356;SDS011;3211;53.452;-2.264;2023-07-20T02:44:02;5.63;;;4.07;;
6356;SDS011;3211;53.452;-2.264;2023-07-20T02:46:44;6.00;;;3.50;;
6356;SDS011;3211;53.452;-2.264;2023-07-20T02:49:26;6.73;;;4.47;;
6356;SDS011;3211;53.452;-2.264;2023-07-20T02:52:08;6.40;;;4.40;;
6356;SDS011;3211;53.452;-2.264;2023-07-20T02:54:52;8.40;;;4.70;;
6356;SDS011;3211;53.452;-2.264;2023-07-20T02:57:34;6.77;;;5.67;;
6356;SDS011;3211;53.452;-2.264;2023-07-20T03:00:16;8.00;;;5.57;;
6356;SDS011;3211;53.452;-2.264;2023-07-20T03:02:59;6.30;;;5.70;;
6356;SDS011;3211;53.452;-2.264;2023-07-20T03:05:43;7.77;;;6.10;;
6356;SDS011;3211;53.452;-2.264;2023-07-20T03:08:25;7.10;;;4.83;;
6356;SDS011;3211;53.452;-2.264;2023-07-20T03:11:08;5.47;;;4.97;;
6356;SDS011;3211;53.452;-2.264;2023-07-20T03:13:50;8.50;;;5.30;;
6356;SDS011;3211;53.452;-2.264;2023-07-20T03:16:32;6.87;;;5.13;;
6356;SDS011;3211;53.452;-2.264;2023-07-20T03:19:14;6.70;;;5.90;;
6356;SDS011;3211;53.452;-2.264;2023-07-20T03:25:30;6.83;;;6.10;;
6356;SDS011;3211;53.452;-2.264;2023-07-20T03:28:15;11.30;;;6.23;;
6356;SDS011;3211;53.452;-2.264;2023-07-20T03:30:57;6.50;;;5.60;;
6356;SDS011;3211;53.452;-2.264;2023-07-20T03:33:39;10.33;;;5.90;;
6356;SDS011;3211;53.452;-2.264;2023-07-20T03:36:22;10.33;;;6.20;;
6356;SDS011;3211;53.452;-2.264;2023-07-20T03:39:04;9.60;;;6.30;;
6356;SDS011;3211;53.452;-2.264;2023-07-20T03:41:46;7.37;;;6.20;;
6356;SDS011;3211;53.452;-2.264;2023-07-20T03:44:29;6.80;;;5.77;;
6356;SDS011;3211;53.452;-2.264;2023-07-20T03:47:11;12.00;;;5.93;;
6356;SDS011;3211;53.452;-2.264;2023-07-20T03:49:53;7.93;;;6.20;;
6356;SDS011;3211;53.452;-2.264;2023-07-20T03:52:35;7.50;;;6.40;;
6356;SDS011;3211;53.452;-2.264;2023-07-20T03:55:17;8.63;;;6.23;;
6356;SDS011;3211;53.452;-2.264;2023-07-20T03:57:59;6.43;;;5.53;;
6356;SDS011;3211;53.452;-2.264;2023-07-20T04:00:44;7.20;;;6.10;;
6356;SDS011;3211;53.452;-2.264;2023-07-20T04:03:27;6.30;;;5.60;;
6356;SDS011;3211;53.452;-2.264;2023-07-20T04:06:09;7.90;;;6.03;;
6356;SDS011;3211;53.452;-2.264;2023-07-20T04:08:51;9.43;;;5.37;;
6356;SDS011;3211;53.452;-2.264;2023-07-20T04:11:33;7.57;;;5.60;;
6356;SDS011;3211;53.452;-2.264;2023-07-20T04:14:15;6.10;;;5.50;;
6356;SDS011;3211;53.452;-2.264;2023-07-20T04:16:58;8.53;;;6.17;;
6356;SDS011;3211;53.452;-2.264;2023-07-20T04:19:40;6.27;;;5.47;;
6356;SDS011;3211;53.452;-2.264;2023-07-20T04:22:22;5.83;;;5.23;;
6356;SDS011;3211;53.452;-2.264;2023-07-20T04:25:04;9.23;;;6.00;;
6356;SDS011;3211;53.452;-2.264;2023-07-20T04:27:47;6.27;;;5.10;;
6356;SDS011;3211;53.452;-2.264;2023-07-20T04:30:29;6.23;;;5.53;;
6356;SDS011;3211;53.452;-2.264;2023-07-20T04:33:12;11.00;;;5.70;;
6356;SDS011;3211;53.452;-2.264;2023-07-20T04:35:54;11.33;;;5.67;;
6356;SDS011;3211;53.452;-2.264;2023-07-20T04:38:36;12.00;;;6.33;;
6356;SDS011;3211;53.452;-2.264;2023-07-20T04:41:18;8.73;;;5.83;;
6356;SDS011;3211;53.452;-2.264;2023-07-20T04:44:00;5.97;;;5.37;;
6356;SDS011;3211;53.452;-2.264;2023-07-20T04:46:43;7.67;;;5.60;;
6356;SDS011;3211;53.452;-2.264;2023-07-20T04:49:26;6.57;;;5.50;;
6356;SDS011;3211;53.452;-2.264;2023-07-20T04:52:08;7.33;;;4.87;;
6356;SDS011;3211;53.452;-2.264;2023-07-20T04:54:50;10.70;;;5.20;;
6356;SDS011;3211;53.452;-2.264;2023-07-20T04:57:32;5.57;;;4.97;;
6356;SDS011;3211;53.452;-2.264;2023-07-20T05:00:14;8.07;;;5.60;;
6356;SDS011;3211;53.452;-2.264;2023-07-20T05:02:57;7.70;;;5.30;;
6356;SDS011;3211;53.452;-2.264;2023-07-20T05:05:40;6.70;;;5.23;;
6356;SDS011;3211;53.452;-2.264;2023-07-20T05:08:22;8.30;;;5.70;;
6356;SDS011;3211;53.452;-2.264;2023-07-20T05:11:04;5.90;;;5.27;;
6356;SDS011;3211;53.452;-2.264;2023-07-20T05:13:47;15.03;;;5.17;;
6356;SDS011;3211;53.452;-2.264;2023-07-20T05:16:29;6.77;;;4.90;;
6356;SDS011;3211;53.452;-2.264;2023-07-20T05:19:11;6.53;;;5.47;;
6356;SDS011;3211;53.452;-2.264;2023-07-20T05:21:54;7.30;;;5.00;;
6356;SDS011;3211;53.452;-2.264;2023-07-20T05:24:36;5.73;;;5.23;;
6356;SDS011;3211;53.452;-2.264;2023-07-20T05:27:18;5.50;;;4.73;;
6356;SDS011;3211;53.452;-2.264;2023-07-20T05:30:00;8.00;;;5.50;;
6356;SDS011;3211;53.452;-2.264;2023-07-20T05:32:42;6.57;;;5.20;;
6356;SDS011;3211;53.452;-2.264;2023-07-20T05:35:25;6.27;;;4.77;;
6356;SDS011;3211;53.452;-2.264;2023-07-20T05:38:08;9.40;;;5.40;;
6356;SDS011;3211;53.452;-2.264;2023-07-20T05:40:50;6.80;;;5.37;;
6356;SDS011;3211;53.452;-2.264;2023-07-20T05:43:32;8.30;;;4.97;;
6356;SDS011;3211;53.452;-2.264;2023-07-20T05:46:14;7.17;;;5.83;;
6356;SDS011;3211;53.452;-2.264;2023-07-20T05:48:56;6.20;;;4.83;;
6356;SDS011;3211;53.452;-2.264;2023-07-20T05:51:38;7.90;;;5.90;;
6356;SDS011;3211;53.452;-2.264;2023-07-20T05:54:21;9.70;;;6.37;;
6356;SDS011;3211;53.452;-2.264;2023-07-20T05:57:05;9.00;;;5.60;;
6356;SDS011;3211;53.452;-2.264;2023-07-20T05:59:47;8.67;;;6.40;;
6356;SDS011;3211;53.452;-2.264;2023-07-20T06:02:29;9.30;;;6.63;;
6356;SDS011;3211;53.452;-2.264;2023-07-20T06:05:12;9.60;;;6.20;;
6356;SDS011;3211;53.452;-2.264;2023-07-20T06:07:55;7.97;;;5.73;;
6356;SDS011;3211;53.452;-2.264;2023-07-20T06:10:39;11.50;;;6.00;;
6356;SDS011;3211;53.452;-2.264;2023-07-20T06:13:21;10.70;;;6.77;;
6356;SDS011;3211;53.452;-2.264;2023-07-20T06:16:04;7.37;;;6.20;;
6356;SDS011;3211;53.452;-2.264;2023-07-20T06:18:46;11.40;;;6.77;;
6356;SDS011;3211;53.452;-2.264;2023-07-20T06:21:28;12.03;;;6.80;;
6356;SDS011;3211;53.452;-2.264;2023-07-20T06:24:10;11.33;;;7.67;;
6356;SDS011;3211;53.452;-2.264;2023-07-20T06:26:53;13.80;;;8.03;;
6356;SDS011;3211;53.452;-2.264;2023-07-20T06:29:35;9.70;;;7.67;;
6356;SDS011;3211;53.452;-2.264;2023-07-20T06:32:17;14.70;;;9.60;;
6356;SDS011;3211;53.452;-2.264;2023-07-20T06:34:59;13.47;;;7.77;;
6356;SDS011;3211;53.452;-2.264;2023-07-20T06:37:41;14.63;;;8.20;;
6356;SDS011;3211;53.452;-2.264;2023-07-20T06:40:23;15.80;;;8.60;;
6356;SDS011;3211;53.452;-2.264;2023-07-20T06:43:06;13.43;;;8.43;;
6356;SDS011;3211;53.452;-2.264;2023-07-20T06:45:50;12.13;;;9.63;;
6356;SDS011;3211;53.452;-2.264;2023-07-20T06:48:33;12.63;;;9.30;;
6356;SDS011;3211;53.452;-2.264;2023-07-20T06:51:15;17.33;;;10.53;;
6356;SDS011;3211;53.452;-2.264;2023-07-20T06:53:57;16.90;;;9.77;;
6356;SDS011;3211;53.452;-2.264;2023-07-20T06:56:39;17.90;;;10.07;;
6356;SDS011;3211;53.452;-2.264;2023-07-20T06:59:23;14.00;;;9.93;;
6356;SDS011;3211;53.452;-2.264;2023-07-20T07:02:05;13.67;;;9.30;;
6356;SDS011;3211;53.452;-2.264;2023-07-20T07:04:47;14.40;;;9.87;;
6356;SDS011;3211;53.452;-2.264;2023-07-20T07:07:29;13.20;;;9.50;;
6356;SDS011;3211;53.452;-2.264;2023-07-20T07:10:11;13.30;;;10.67;;
6356;SDS011;3211;53.452;-2.264;2023-07-20T07:12:53;13.40;;;9.37;;
6356;SDS011;3211;53.452;-2.264;2023-07-20T07:15:36;17.77;;;10.63;;
6356;SDS011;3211;53.452;-2.264;2023-07-20T07:18:18;13.57;;;9.70;;
6356;SDS011;3211;53.452;-2.264;2023-07-20T07:21:00;17.47;;;9.20;;
6356;SDS011;3211;53.452;-2.264;2023-07-20T07:23:42;12.97;;;9.83;;
6356;SDS011;3211;53.452;-2.264;2023-07-20T07:26:24;12.30;;;9.30;;
6356;SDS011;3211;53.452;-2.264;2023-07-20T07:29:06;12.77;;;8.50;;
6356;SDS011;3211;53.452;-2.264;2023-07-20T07:31:49;11.53;;;9.10;;
6356;SDS011;3211;53.452;-2.264;2023-07-20T07:34:31;13.03;;;9.47;;
6356;SDS011;3211;53.452;-2.264;2023-07-20T07:37:14;13.00;;;9.70;;
6356;SDS011;3211;53.452;-2.264;2023-07-20T07:39:57;12.67;;;9.40;;
6356;SDS011;3211;53.452;-2.264;2023-07-20T07:42:39;12.10;;;8.93;;
6356;SDS011;3211;53.452;-2.264;2023-07-20T07:45:21;12.90;;;8.20;;
6356;SDS011;3211;53.452;-2.264;2023-07-20T07:48:05;13.17;;;8.27;;
6356;SDS011;3211;53.452;-2.264;2023-07-20T07:50:47;11.93;;;8.33;;
6356;SDS011;3211;53.452;-2.264;2023-07-20T07:53:30;15.63;;;8.70;;
6356;SDS011;3211;53.452;-2.264;2023-07-20T07:56:12;12.13;;;8.37;;
6356;SDS011;3211;53.452;-2.264;2023-07-20T07:58:54;12.87;;;8.80;;
6356;SDS011;3211;53.452;-2.264;2023-07-20T08:01:36;1.00;;;0.90;;
6356;SDS011;3211;53.452;-2.264;2023-07-20T08:04:19;0.80;;;0.80;;
6356;SDS011;3211;53.452;-2.264;2023-07-20T08:07:03;0.80;;;0.80;;
6356;SDS011;3211;53.452;-2.264;2023-07-20T08:09:45;9.93;;;8.57;;
6356;SDS011;3211;53.452;-2.264;2023-07-20T08:12:27;12.97;;;8.87;;
6356;SDS011;3211;53.452;-2.264;2023-07-20T08:15:10;11.87;;;9.20;;
6356;SDS011;3211;53.452;-2.264;2023-07-20T08:17:54;13.67;;;10.07;;
6356;SDS011;3211;53.452;-2.264;2023-07-20T08:20:38;13.53;;;9.10;;
6356;SDS011;3211;53.452;-2.264;2023-07-20T08:23:20;16.13;;;8.17;;
6356;SDS011;3211;53.452;-2.264;2023-07-20T08:26:02;15.03;;;8.17;;
6356;SDS011;3211;53.452;-2.264;2023-07-20T08:28:45;12.20;;;8.37;;
6356;SDS011;3211;53.452;-2.264;2023-07-20T08:31:28;11.37;;;8.93;;
6356;SDS011;3211;53.452;-2.264;2023-07-20T08:34:10;12.80;;;7.47;;
6356;SDS011;3211;53.452;-2.264;2023-07-20T08:36:53;10.90;;;8.17;;
6356;SDS011;3211;53.452;-2.264;2023-07-20T08:39:36;10.10;;;7.90;;
6356;SDS011;3211;53.452;-2.264;2023-07-20T08:42:18;9.90;;;7.03;;
6356;SDS011;3211;53.452;-2.264;2023-07-20T08:45:00;7.40;;;6.17;;
6356;SDS011;3211;53.452;-2.264;2023-07-20T08:47:44;9.20;;;6.80;;
6356;SDS011;3211;53.452;-2.264;2023-07-20T08:50:28;12.53;;;7.57;;
6356;SDS011;3211;53.452;-2.264;2023-07-20T08:53:13;15.60;;;7.37;;
6356;SDS011;3211;53.452;-2.264;2023-07-20T08:55:55;9.07;;;6.80;;
6356;SDS011;3211;53.452;-2.264;2023-07-20T08:58:37;9.20;;;6.87;;
6356;SDS011;3211;53.452;-2.264;2023-07-20T09:01:23;9.30;;;7.20;;
6356;SDS011;3211;53.452;-2.264;2023-07-20T09:04:05;8.60;;;6.20;;
6356;SDS011;3211;53.452;-2.264;2023-07-20T09:06:48;6.73;;;6.03;;
6356;SDS011;3211;53.452;-2.264;2023-07-20T09:09:32;8.07;;;6.03;;
6356;SDS011;3211;53.452;-2.264;2023-07-20T09:12:14;8.83;;;6.67;;
6356;SDS011;3211;53.452;-2.264;2023-07-20T09:14:57;9.33;;;6.80;;
6356;SDS011;3211;53.452;-2.264;2023-07-20T09:17:39;10.83;;;6.40;;
6356;SDS011;3211;53.452;-2.264;2023-07-20T09:20:26;9.73;;;6.97;;
6356;SDS011;3211;53.452;-2.264;2023-07-20T09:23:11;6.83;;;6.10;;
6356;SDS011;3211;53.452;-2.264;2023-07-20T09:25:55;7.27;;;6.47;;
6356;SDS011;3211;53.452;-2.264;2023-07-20T09:28:42;7.87;;;5.93;;
6356;SDS011;3211;53.452;-2.264;2023-07-20T09:31:24;8.27;;;6.97;;
6356;SDS011;3211;53.452;-2.264;2023-07-20T09:34:06;8.13;;;5.77;;
6356;SDS011;3211;53.452;-2.264;2023-07-20T09:36:48;8.87;;;6.83;;
6356;SDS011;3211;53.452;-2.264;2023-07-20T09:39:32;7.50;;;6.37;;
6356;SDS011;3211;53.452;-2.264;2023-07-20T09:42:24;8.00;;;5.70;;
6356;SDS011;3211;53.452;-2.264;2023-07-20T09:45:07;10.57;;;6.00;;
6356;SDS011;3211;53.452;-2.264;2023-07-20T09:47:50;7.10;;;5.80;;
6356;SDS011;3211;53.452;-2.264;2023-07-20T09:50:32;6.93;;;6.07;;
6356;SDS011;3211;53.452;-2.264;2023-07-20T09:53:14;9.10;;;6.00;;
6356;SDS011;3211;53.452;-2.264;2023-07-20T09:55:57;6.87;;;5.97;;
6356;SDS011;3211;53.452;-2.264;2023-07-20T09:58:41;7.23;;;6.00;;
6356;SDS011;3211;53.452;-2.264;2023-07-20T10:01:24;7.30;;;5.60;;
6356;SDS011;3211;53.452;-2.264;2023-07-20T10:04:10;6.47;;;5.80;;
6356;SDS011;3211;53.452;-2.264;2023-07-20T10:06:54;6.17;;;5.57;;
6356;SDS011;3211;53.452;-2.264;2023-07-20T10:09:37;13.83;;;5.20;;
6356;SDS011;3211;53.452;-2.264;2023-07-20T10:12:21;5.83;;;5.03;;
6356;SDS011;3211;53.452;-2.264;2023-07-20T10:15:10;5.47;;;4.70;;
6356;SDS011;3211;53.452;-2.264;2023-07-20T10:17:58;6.13;;;5.53;;
6356;SDS011;3211;53.452;-2.264;2023-07-20T10:20:44;4.93;;;4.43;;
6356;SDS011;3211;53.452;-2.264;2023-07-20T10:23:27;6.20;;;5.60;;
6356;SDS011;3211;53.452;-2.264;2023-07-20T10:26:10;5.70;;;5.20;;
6356;SDS011;3211;53.452;-2.264;2023-07-20T10:28:53;8.90;;;5.90;;
6356;SDS011;3211;53.452;-2.264;2023-07-20T10:31:37;8.60;;;4.97;;
6356;SDS011;3211;53.452;-2.264;2023-07-20T10:34:19;5.07;;;4.67;;
6356;SDS011;3211;53.452;-2.264;2023-07-20T10:37:01;6.57;;;5.60;;
6356;SDS011;3211;53.452;-2.264;2023-07-20T10:39:43;6.13;;;5.03;;
6356;SDS011;3211;53.452;-2.264;2023-07-20T10:42:25;10.90;;;4.93;;
6356;SDS011;3211;53.452;-2.264;2023-07-20T10:45:15;6.27;;;5.37;;
6356;SDS011;3211;53.452;-2.264;2023-07-20T10:48:00;5.60;;;4.53;;
6356;SDS011;3211;53.452;-2.264;2023-07-20T10:50:45;4.90;;;4.50;;
6356;SDS011;3211;53.452;-2.264;2023-07-20T10:53:48;5.53;;;4.77;;
6356;SDS011;3211;53.452;-2.264;2023-07-20T10:56:30;7.43;;;4.57;;
6356;SDS011;3211;53.452;-2.264;2023-07-20T10:59:17;5.10;;;4.60;;
6356;SDS011;3211;53.452;-2.264;2023-07-20T11:02:02;5.40;;;4.90;;
6356;SDS011;3211;53.452;-2.264;2023-07-20T11:04:49;6.80;;;5.07;;
6356;SDS011;3211;53.452;-2.264;2023-07-20T11:07:37;5.67;;;5.17;;
6356;SDS011;3211;53.452;-2.264;2023-07-20T11:10:20;5.03;;;4.50;;
6356;SDS011;3211;53.452;-2.264;2023-07-20T11:13:18;6.50;;;5.20;;
6356;SDS011;3211;53.452;-2.264;2023-07-20T11:16:02;6.73;;;4.70;;
6356;SDS011;3211;53.452;-2.264;2023-07-20T11:18:45;4.97;;;4.50;;
6356;SDS011;3211;53.452;-2.264;2023-07-20T11:21:29;5.33;;;4.83;;
6356;SDS011;3211;53.452;-2.264;2023-07-20T11:24:17;8.60;;;4.97;;
6356;SDS011;3211;53.452;-2.264;2023-07-20T11:26:59;6.00;;;4.93;;
6356;SDS011;3211;53.452;-2.264;2023-07-20T11:29:42;5.80;;;5.07;;
6356;SDS011;3211;53.452;-2.264;2023-07-20T11:32:26;5.07;;;4.57;;
6356;SDS011;3211;53.452;-2.264;2023-07-20T11:35:12;7.00;;;5.40;;
6356;SDS011;3211;53.452;-2.264;2023-07-20T11:37:56;8.93;;;4.80;;
6356;SDS011;3211;53.452;-2.264;2023-07-20T11:40:41;6.57;;;5.80;;
6356;SDS011;3211;53.452;-2.264;2023-07-20T11:43:24;6.03;;;5.30;;
6356;SDS011;3211;53.452;-2.264;2023-07-20T11:46:06;7.10;;;5.37;;
6356;SDS011;3211;53.452;-2.264;2023-07-20T11:48:48;5.73;;;4.57;;
6356;SDS011;3211;53.452;-2.264;2023-07-20T11:51:30;5.10;;;4.60;;
6356;SDS011;3211;53.452;-2.264;2023-07-20T11:54:14;5.23;;;4.73;;
6356;SDS011;3211;53.452;-2.264;2023-07-20T11:56:56;5.97;;;5.40;;
6356;SDS011;3211;53.452;-2.264;2023-07-20T11:59:52;5.03;;;4.60;;
6356;SDS011;3211;53.452;-2.264;2023-07-20T12:02:37;10.63;;;4.30;;
6356;SDS011;3211;53.452;-2.264;2023-07-20T12:05:22;4.67;;;3.60;;
6356;SDS011;3211;53.452;-2.264;2023-07-20T12:08:04;5.03;;;4.13;;
6356;SDS011;3211;53.452;-2.264;2023-07-20T12:10:48;4.50;;;4.10;;
6356;SDS011;3211;53.452;-2.264;2023-07-20T12:13:37;4.77;;;3.83;;
6356;SDS011;3211;53.452;-2.264;2023-07-20T12:16:19;4.90;;;3.77;;
6356;SDS011;3211;53.452;-2.264;2023-07-20T12:19:02;6.50;;;4.50;;
6356;SDS011;3211;53.452;-2.264;2023-07-20T12:21:44;4.10;;;3.70;;
6356;SDS011;3211;53.452;-2.264;2023-07-20T12:24:26;4.37;;;3.80;;
6356;SDS011;3211;53.452;-2.264;2023-07-20T12:27:12;5.60;;;4.00;;
6356;SDS011;3211;53.452;-2.264;2023-07-20T12:29:54;8.40;;;4.50;;
6356;SDS011;3211;53.452;-2.264;2023-07-20T12:32:37;6.63;;;4.00;;
6356;SDS011;3211;53.452;-2.264;2023-07-20T12:35:19;3.93;;;3.50;;
6356;SDS011;3211;53.452;-2.264;2023-07-20T12:38:01;6.40;;;4.20;;
6356;SDS011;3211;53.452;-2.264;2023-07-20T12:40:43;4.30;;;3.80;;
6356;SDS011;3211;53.452;-2.264;2023-07-20T12:43:26;5.60;;;3.83;;
6356;SDS011;3211;53.452;-2.264;2023-07-20T12:46:10;3.83;;;3.10;;
6356;SDS011;3211;53.452;-2.264;2023-07-20T12:48:53;3.40;;;3.10;;
6356;SDS011;3211;53.452;-2.264;2023-07-20T12:51:35;4.10;;;3.70;;
6356;SDS011;3211;53.452;-2.264;2023-07-20T12:54:17;7.97;;;4.30;;
6356;SDS011;3211;53.452;-2.264;2023-07-20T12:56:59;3.90;;;3.50;;
6356;SDS011;3211;53.452;-2.264;2023-07-20T12:59:42;4.53;;;3.57;;
6356;SDS011;3211;53.452;-2.264;2023-07-20T13:02:24;6.23;;;4.70;;
6356;SDS011;3211;53.452;-2.264;2023-07-20T13:05:06;4.90;;;4.40;;
6356;SDS011;3211;53.452;-2.264;2023-07-20T13:07:48;4.93;;;4.43;;
6356;SDS011;3211;53.452;-2.264;2023-07-20T13:10:30;5.87;;;4.33;;
6356;SDS011;3211;53.452;-2.264;2023-07-20T13:13:12;6.23;;;4.33;;
6356;SDS011;3211;53.452;-2.264;2023-07-20T13:15:56;4.40;;;3.37;;
6356;SDS011;3211;53.452;-2.264;2023-07-20T13:18:38;4.87;;;4.40;;
6356;SDS011;3211;53.452;-2.264;2023-07-20T13:21:20;4.43;;;3.47;;
6356;SDS011;3211;53.452;-2.264;2023-07-20T13:24:02;4.77;;;3.70;;
6356;SDS011;3211;53.452;-2.264;2023-07-20T13:26:45;5.37;;;4.10;;
6356;SDS011;3211;53.452;-2.264;2023-07-20T13:29:27;4.90;;;3.80;;
6356;SDS011;3211;53.452;-2.264;2023-07-20T13:32:12;7.43;;;4.20;;
6356;SDS011;3211;53.452;-2.264;2023-07-20T13:34:54;5.03;;;3.63;;
6356;SDS011;3211;53.452;-2.264;2023-07-20T13:37:36;3.87;;;3.47;;
6356;SDS011;3211;53.452;-2.264;2023-07-20T13:40:18;4.40;;;3.80;;
6356;SDS011;3211;53.452;-2.264;2023-07-20T13:43:02;6.20;;;3.73;;
6356;SDS011;3211;53.452;-2.264;2023-07-20T13:45:44;6.30;;;3.70;;
6356;SDS011;3211;53.452;-2.264;2023-07-20T13:48:28;3.53;;;3.23;;
6356;SDS011;3211;53.452;-2.264;2023-07-20T13:51:10;5.33;;;4.17;;
6356;SDS011;3211;53.452;-2.264;2023-07-20T13:53:51;5.83;;;4.03;;
6356;SDS011;3211;53.452;-2.264;2023-07-20T13:56:33;4.87;;;3.73;;
6356;SDS011;3211;53.452;-2.264;2023-07-20T13:59:15;5.33;;;4.00;;
6356;SDS011;3211;53.452;-2.264;2023-07-20T14:01:57;4.57;;;3.80;;
6356;SDS011;3211;53.452;-2.264;2023-07-20T14:04:41;4.87;;;3.53;;
6356;SDS011;3211;53.452;-2.264;2023-07-20T14:07:22;4.50;;;3.60;;
6356;SDS011;3211;53.452;-2.264;2023-07-20T14:10:05;4.37;;;3.50;;
6356;SDS011;3211;53.452;-2.264;2023-07-20T14:12:47;4.27;;;3.50;;
6356;SDS011;3211;53.452;-2.264;2023-07-20T14:15:29;3.90;;;3.57;;
6356;SDS011;3211;53.452;-2.264;2023-07-20T14:18:11;5.47;;;3.53;;
6356;SDS011;3211;53.452;-2.264;2023-07-20T14:20:54;3.80;;;3.50;;
6356;SDS011;3211;53.452;-2.264;2023-07-20T14:23:36;4.10;;;3.70;;
6356;SDS011;3211;53.452;-2.264;2023-07-20T14:26:18;4.43;;;4.03;;
6356;SDS011;3211;53.452;-2.264;2023-07-20T14:29:00;4.17;;;3.10;;
6356;SDS011;3211;53.452;-2.264;2023-07-20T14:31:42;3.23;;;2.93;;
6356;SDS011;3211;53.452;-2.264;2023-07-20T14:34:24;3.73;;;3.33;;
6356;SDS011;3211;53.452;-2.264;2023-07-20T14:37:08;6.03;;;3.20;;
6356;SDS011;3211;53.452;-2.264;2023-07-20T14:39:49;4.00;;;3.60;;
6356;SDS011;3211;53.452;-2.264;2023-07-20T14:42:31;3.63;;;3.33;;
6356;SDS011;3211;53.452;-2.264;2023-07-20T14:45:13;5.90;;;3.87;;
6356;SDS011;3211;53.452;-2.264;2023-07-20T14:47:56;6.00;;;3.70;;
6356;SDS011;3211;53.452;-2.264;2023-07-20T14:50:38;3.60;;;3.30;;
6356;SDS011;3211;53.452;-2.264;2023-07-20T14:53:21;4.57;;;3.27;;
6356;SDS011;3211;53.452;-2.264;2023-07-20T14:56:03;3.90;;;3.37;;
6356;SDS011;3211;53.452;-2.264;2023-07-20T14:58:45;4.03;;;3.63;;
6356;SDS011;3211;53.452;-2.264;2023-07-20T15:01:27;5.13;;;4.10;;
6356;SDS011;3211;53.452;-2.264;2023-07-20T15:04:09;6.83;;;4.23;;
6356;SDS011;3211;53.452;-2.264;2023-07-20T15:06:51;6.30;;;4.30;;
6356;SDS011;3211;53.452;-2.264;2023-07-20T15:09:36;4.73;;;4.23;;
6356;SDS011;3211;53.452;-2.264;2023-07-20T15:12:18;5.70;;;5.00;;
6356;SDS011;3211;53.452;-2.264;2023-07-20T15:15:03;5.43;;;4.50;;
6356;SDS011;3211;53.452;-2.264;2023-07-20T15:17:47;5.40;;;4.90;;
6356;SDS011;3211;53.452;-2.264;2023-07-20T15:20:29;6.30;;;5.47;;
6356;SDS011;3211;53.452;-2.264;2023-07-20T15:23:13;5.90;;;5.30;;
6356;SDS011;3211;53.452;-2.264;2023-07-20T15:25:57;5.77;;;4.97;;
6356;SDS011;3211;53.452;-2.264;2023-07-20T15:28:39;8.23;;;5.20;;
6356;SDS011;3211;53.452;-2.264;2023-07-20T15:31:21;4.80;;;4.40;;
6356;SDS011;3211;53.452;-2.264;2023-07-20T15:34:03;5.50;;;4.90;;
6356;SDS011;3211;53.452;-2.264;2023-07-20T15:36:45;7.43;;;4.53;;
6356;SDS011;3211;53.452;-2.264;2023-07-20T15:39:27;7.80;;;5.50;;
6356;SDS011;3211;53.452;-2.264;2023-07-20T15:42:11;5.47;;;4.53;;
6356;SDS011;3211;53.452;-2.264;2023-07-20T15:44:53;5.97;;;4.77;;
6356;SDS011;3211;53.452;-2.264;2023-07-20T15:47:35;5.13;;;4.43;;
6356;SDS011;3211;53.452;-2.264;2023-07-20T15:50:17;5.77;;;4.73;;
6356;SDS011;3211;53.452;-2.264;2023-07-20T15:52:59;7.63;;;5.03;;
6356;SDS011;3211;53.452;-2.264;2023-07-20T15:55:41;8.70;;;5.67;;
6356;SDS011;3211;53.452;-2.264;2023-07-20T15:58:25;6.23;;;4.80;;
6356;SDS011;3211;53.452;-2.264;2023-07-20T16:01:07;6.47;;;4.63;;
6356;SDS011;3211;53.452;-2.264;2023-07-20T16:03:48;7.50;;;5.10;;
6356;SDS011;3211;53.452;-2.264;2023-07-20T16:06:31;5.80;;;5.30;;
6356;SDS011;3211;53.452;-2.264;2023-07-20T16:09:15;6.20;;;5.27;;
6356;SDS011;3211;53.452;-2.264;2023-07-20T16:11:57;5.83;;;5.00;;
6356;SDS011;3211;53.452;-2.264;2023-07-20T16:14:40;5.00;;;4.50;;
6356;SDS011;3211;53.452;-2.264;2023-07-20T16:17:22;4.93;;;4.03;;
6356;SDS011;3211;53.452;-2.264;2023-07-20T16:20:05;5.87;;;5.30;;
6356;SDS011;3211;53.452;-2.264;2023-07-20T16:22:48;4.83;;;4.40;;
6356;SDS011;3211;53.452;-2.264;2023-07-20T16:25:29;9.57;;;7.00;;
6356;SDS011;3211;53.452;-2.264;2023-07-20T16:28:11;12.97;;;6.70;;
6356;SDS011;3211;53.452;-2.264;2023-07-20T16:30:55;11.23;;;8.00;;
6356;SDS011;3211;53.452;-2.264;2023-07-20T16:33:37;10.37;;;7.73;;
6356;SDS011;3211;53.452;-2.264;2023-07-20T16:36:19;5.80;;;5.20;;
6356;SDS011;3211;53.452;-2.264;2023-07-20T16:39:01;5.30;;;4.53;;
6356;SDS011;3211;53.452;-2.264;2023-07-20T16:41:44;9.07;;;5.90;;
6356;SDS011;3211;53.452;-2.264;2023-07-20T16:44:26;6.90;;;6.20;;